createdAt,value
2022-11-21T00:01:21.729Z,101209.78
2022-11-21T00:03:51.868Z,101209.69
2022-11-21T00:06:21.045Z,101211.16
2022-11-21T00:08:49.240Z,101200.25
2022-11-21T00:11:18.056Z,101183.69
2022-11-21T00:13:46.509Z,101191.31
2022-11-21T00:16:16.683Z,101199.81
2022-11-21T00:18:45.491Z,101193.84
2022-11-21T00:21:16.622Z,101193.25
2022-11-21T00:23:45.495Z,101190.81
2022-11-21T00:26:15.778Z,101182.94
2022-11-21T00:28:44.053Z,101186.56
2022-11-21T00:31:20.712Z,101182.81
2022-11-21T00:33:49.151Z,101181.13
2022-11-21T00:36:18.861Z,101191.66
2022-11-21T00:38:47.378Z,101177.22
2022-11-21T00:41:15.679Z,101179.09
2022-11-21T00:43:44.023Z,101173.75
2022-11-21T00:46:12.285Z,101171.31
2022-11-21T00:48:40.574Z,101166.22
2022-11-21T00:51:08.816Z,101159.22
2022-11-21T00:53:38.507Z,101157.91
2022-11-21T00:56:06.986Z,101163.84
2022-11-21T00:58:35.693Z,101170.63
2022-11-21T01:01:06.533Z,101160.81
2022-11-21T01:03:35.467Z,101173.28
2022-11-21T01:06:05.298Z,101179.81
2022-11-21T01:08:35.346Z,101163.56
2022-11-21T01:11:06.051Z,101154.59
2022-11-21T01:13:34.830Z,101158.81
2022-11-21T01:16:06.027Z,101157.34
2022-11-21T01:18:34.324Z,101156.22
2022-11-21T01:21:03.100Z,101156.47
2022-11-21T01:23:31.577Z,101152.22
2022-11-21T01:26:03.742Z,101144.13
2022-11-21T01:28:33.816Z,101139.53
2022-11-21T01:31:07.057Z,101145.47
2022-11-21T01:33:35.531Z,101141.72
2022-11-21T01:36:11.592Z,101148.75
2022-11-21T01:38:40.402Z,101159.84
2022-11-21T01:41:09.056Z,101139.66
2022-11-21T01:43:38.977Z,101137.72
2022-11-21T01:46:13.692Z,101130.19
2022-11-21T01:48:47.197Z,101148.13
2022-11-21T01:51:21.889Z,101151.53
2022-11-21T01:53:54.458Z,101151.53
2022-11-21T01:56:23.961Z,101144.75
2022-11-21T01:58:57.038Z,101137.09
2022-11-21T02:01:25.775Z,101122.69
2022-11-21T02:03:58.034Z,101110.38
2022-11-21T02:06:27.394Z,101109.28
2022-11-21T02:08:56.084Z,101109.06
2022-11-21T02:11:31.994Z,101116.06
2022-11-21T02:14:02.387Z,101114.97
2022-11-21T02:16:31.121Z,101106.88
2022-11-21T02:18:59.628Z,101097.06
2022-11-21T02:21:39.615Z,101093.56
2022-11-21T02:24:14.464Z,101080.03
2022-11-21T02:26:44.272Z,101078.56
2022-11-21T02:29:12.524Z,101081.09
2022-11-21T02:31:40.858Z,101081.72
2022-11-21T02:34:09.121Z,101079.91
2022-11-21T02:36:42.525Z,101067.72
2022-11-21T02:39:15.722Z,101054.19
2022-11-21T02:41:54.117Z,101051.63
2022-11-21T02:44:27.896Z,101049.09
2022-11-21T02:46:56.326Z,101063.13
2022-11-21T02:49:36.900Z,101069.91
2022-11-21T02:52:05.427Z,101064.47
2022-11-21T02:54:33.639Z,101064.94
2022-11-21T02:57:03.335Z,101060.47
2022-11-21T02:59:31.623Z,101041.94
2022-11-21T03:02:01.170Z,101039.69
2022-11-21T03:04:30.312Z,101038.81
2022-11-21T03:06:58.855Z,101036.53
2022-11-21T03:09:27.335Z,101030.97
2022-11-21T03:11:55.589Z,101025.41
2022-11-21T03:14:25.412Z,101007.25
2022-11-21T03:16:53.972Z,100994.78
2022-11-21T03:19:22.188Z,100977.22
2022-11-21T03:21:51.492Z,100975.66
2022-11-21T03:24:19.828Z,100973.84
2022-11-21T03:26:48.191Z,100965.63
2022-11-21T03:29:16.431Z,100966.59
2022-11-21T03:31:46.165Z,100972.28
2022-11-21T03:34:14.480Z,100981.09
2022-11-21T03:36:42.666Z,100980.13
2022-11-21T03:39:10.974Z,100973.22
2022-11-21T03:41:39.195Z,100967.34
2022-11-21T03:44:09.896Z,100956.09
2022-11-21T03:46:41.137Z,100935.59
2022-11-21T03:49:11.254Z,100918.09
2022-11-21T03:51:40.299Z,100907.06
2022-11-21T03:54:09.109Z,100913.09
2022-11-21T03:56:37.420Z,100895.91
2022-11-21T03:59:05.646Z,100900.16
2022-11-21T04:01:36.783Z,100873.34
2022-11-21T04:04:06.076Z,100851.72
2022-11-21T04:06:35.640Z,100846.63
2022-11-21T04:09:04.340Z,100856.66
2022-11-21T04:11:32.556Z,100868.00
2022-11-21T04:14:01.901Z,100865.00
2022-11-21T04:16:30.211Z,100856.19
2022-11-21T04:18:58.467Z,100852.91
2022-11-21T04:21:26.846Z,100852.81
2022-11-21T04:23:56.579Z,100859.44
2022-11-21T04:26:24.830Z,100851.69
2022-11-21T04:28:52.992Z,100825.81
2022-11-21T04:31:21.183Z,100810.25
2022-11-21T04:33:49.383Z,100810.13
2022-11-21T04:36:18.504Z,100806.50
2022-11-21T04:38:46.808Z,100802.28
2022-11-21T04:41:16.481Z,100801.81
2022-11-21T04:43:44.710Z,100791.28
2022-11-21T04:46:13.049Z,100795.25
2022-11-21T04:48:41.341Z,100801.19
2022-11-21T04:51:10.621Z,100817.50
2022-11-21T04:53:42.861Z,100817.25
2022-11-21T04:56:14.762Z,100800.34
2022-11-21T04:58:44.856Z,100810.25
2022-11-21T05:01:13.489Z,100821.94
2022-11-21T05:03:41.741Z,100818.69
2022-11-21T05:06:09.937Z,100794.63
2022-11-21T05:08:38.125Z,100785.34
2022-11-21T05:11:23.586Z,100783.03
2022-11-21T05:13:55.561Z,100784.91
2022-11-21T05:16:24.141Z,100784.69
2022-11-21T05:18:52.335Z,100785.41
2022-11-21T05:21:20.697Z,100804.28
2022-11-21T05:23:48.919Z,100786.53
2022-11-21T05:26:17.283Z,100784.69
2022-11-21T05:28:45.470Z,100774.06
2022-11-21T05:31:15.272Z,100777.44
2022-11-21T05:33:43.528Z,100760.78
2022-11-21T05:36:11.792Z,100755.47
2022-11-21T05:38:40.006Z,100741.00
2022-11-21T05:41:08.298Z,100733.78
2022-11-21T05:43:47.458Z,100740.06
2022-11-21T05:46:18.709Z,100732.09
2022-11-21T05:48:47.856Z,100733.16
2022-11-21T05:51:16.614Z,100730.28
2022-11-21T05:53:45.356Z,100726.31
2022-11-21T05:56:15.248Z,100746.94
2022-11-21T05:58:43.990Z,100741.41
2022-11-21T06:01:14.713Z,100734.28
2022-11-21T06:03:43.558Z,100745.63
2022-11-21T06:06:13.675Z,100747.31
2022-11-21T06:08:44.003Z,100736.59
2022-11-21T06:11:15.111Z,100735.00
2022-11-21T06:13:43.387Z,100744.91
2022-11-21T06:16:14.264Z,100742.00
2022-11-21T06:18:46.312Z,100741.03
2022-11-21T06:21:16.386Z,100741.16
2022-11-21T06:23:45.097Z,100733.31
2022-11-21T06:26:15.812Z,100699.63
2022-11-21T06:28:45.201Z,100736.81
2022-11-21T06:31:15.503Z,100743.69
2022-11-21T06:33:46.129Z,100731.38
2022-11-21T06:36:16.015Z,100733.66
2022-11-21T06:38:44.800Z,100727.38
2022-11-21T06:41:14.783Z,100735.34
2022-11-21T06:43:43.802Z,100744.28
2022-11-21T06:46:12.646Z,100737.16
2022-11-21T06:48:41.094Z,100735.59
2022-11-21T06:51:17.595Z,100729.31
2022-11-21T06:53:46.773Z,100716.78
2022-11-21T06:56:16.657Z,100698.91
2022-11-21T06:58:44.957Z,100684.41
2022-11-21T07:01:13.603Z,100689.34
2022-11-21T07:03:41.944Z,100689.84
2022-11-21T07:06:11.787Z,100689.50
2022-11-21T07:08:41.497Z,100679.94
2022-11-21T07:11:27.005Z,100682.75
2022-11-21T07:13:55.403Z,100688.06
2022-11-21T07:16:26.194Z,100684.19
2022-11-21T07:18:54.780Z,100670.66
2022-11-21T07:21:24.386Z,100664.75
2022-11-21T07:23:52.635Z,100662.22
2022-11-21T07:26:20.922Z,100664.50
2022-11-21T07:28:49.224Z,100657.50
2022-11-21T07:31:17.448Z,100648.44
2022-11-21T07:33:46.982Z,100642.19
2022-11-21T07:36:15.447Z,100632.28
2022-11-21T07:38:47.645Z,100627.69
2022-11-21T07:41:15.884Z,100621.91
2022-11-21T07:43:44.182Z,100616.69
2022-11-21T07:46:12.462Z,100614.78
2022-11-21T07:48:40.713Z,100617.91
2022-11-21T07:51:10.534Z,100621.28
2022-11-21T07:53:38.852Z,100624.41
2022-11-21T07:56:09.879Z,100620.53
2022-11-21T07:58:38.076Z,100613.28
2022-11-21T08:01:07.432Z,100618.59
2022-11-21T08:03:36.216Z,100620.28
2022-11-21T08:06:06.347Z,100620.75
2022-11-21T08:08:34.602Z,100608.91
2022-11-21T08:11:06.667Z,100594.28
2022-11-21T08:13:36.653Z,100594.16
2022-11-21T08:16:05.295Z,100580.66
2022-11-21T08:18:34.758Z,100587.09
2022-11-21T08:21:03.847Z,100546.50
2022-11-21T08:23:32.968Z,100571.88
2022-11-21T08:26:01.377Z,100572.34
2022-11-21T08:28:29.651Z,100566.66
2022-11-21T08:30:59.344Z,100567.13
2022-11-21T08:33:27.629Z,100569.38
2022-11-21T08:35:55.880Z,100571.66
2022-11-21T08:38:24.368Z,100561.47
2022-11-21T08:41:17.433Z,100553.28
2022-11-21T08:43:46.292Z,100541.88
2022-11-21T08:46:17.007Z,100538.75
2022-11-21T08:48:45.321Z,100532.19
2022-11-21T08:51:13.527Z,100524.69
2022-11-21T08:53:41.743Z,100521.00
2022-11-21T08:56:10.015Z,100530.28
2022-11-21T08:58:38.294Z,100523.75
2022-11-21T09:01:06.609Z,100524.78
2022-11-21T09:03:36.449Z,100521.00
2022-11-21T09:06:04.884Z,100527.19
2022-11-21T09:08:33.240Z,100520.88
2022-11-21T09:11:05.981Z,100524.13
2022-11-21T09:13:34.770Z,100521.16
2022-11-21T09:16:20.938Z,100510.97
2022-11-21T09:18:53.220Z,100501.31
2022-11-21T09:21:22.103Z,100499.09
2022-11-21T09:23:50.426Z,100499.41
2022-11-21T09:26:18.645Z,100505.16
2022-11-21T09:28:47.084Z,100500.41
2022-11-21T09:31:15.485Z,100494.66
2022-11-21T09:33:43.717Z,100484.44
2022-11-21T09:36:13.626Z,100479.44
2022-11-21T09:38:41.927Z,100483.78
2022-11-21T09:41:37.960Z,100477.91
2022-11-21T09:44:20.543Z,100469.53
2022-11-21T09:46:51.082Z,100463.88
2022-11-21T09:49:19.470Z,100467.97
2022-11-21T09:51:49.652Z,100456.19
2022-11-21T09:54:23.995Z,100455.91
2022-11-21T09:56:54.638Z,100446.94
2022-11-21T09:59:34.137Z,100449.06
2022-11-21T10:02:04.121Z,100442.75
2022-11-21T10:04:32.852Z,100445.72
2022-11-21T10:07:05.973Z,100443.56
2022-11-21T10:09:49.740Z,100390.84
2022-11-21T10:12:39.932Z,100429.69
2022-11-21T10:15:20.319Z,100416.41
2022-11-21T10:18:01.823Z,100419.59
2022-11-21T10:20:51.050Z,100419.31
2022-11-21T10:24:03.113Z,100413.16
2022-11-21T10:26:40.892Z,100403.06
2022-11-21T10:29:16.370Z,100417.34
2022-11-21T10:31:46.594Z,100400.06
2022-11-21T10:34:19.889Z,100386.16
2022-11-21T10:36:52.733Z,100378.59
2022-11-21T10:39:25.843Z,100391.50
2022-11-21T10:42:02.550Z,100370.72
2022-11-21T10:44:48.643Z,100331.88
2022-11-21T10:47:27.669Z,100362.94
2022-11-21T10:50:04.709Z,100353.69
2022-11-21T10:52:35.807Z,100302.41
2022-11-21T10:55:13.047Z,100327.44
2022-11-21T10:57:46.421Z,100326.31
2022-11-21T11:00:22.486Z,100307.78
2022-11-21T11:03:17.507Z,100303.97
2022-11-21T11:05:56.807Z,100282.94
2022-11-21T11:08:27.168Z,100261.47
2022-11-21T11:11:07.118Z,100249.41
2022-11-21T11:13:55.988Z,100260.03
2022-11-21T11:16:26.038Z,100243.72
2022-11-21T11:18:59.895Z,100238.38
2022-11-21T11:21:29.986Z,100232.22
2022-11-21T11:24:21.347Z,100217.59
2022-11-21T11:26:56.569Z,100213.09
2022-11-21T11:29:30.494Z,100206.78
2022-11-21T11:32:02.167Z,100169.22
2022-11-21T11:34:40.948Z,100193.25
2022-11-21T11:37:14.402Z,100143.28
2022-11-21T11:39:55.196Z,100153.56
2022-11-21T11:43:16.437Z,100147.69
2022-11-21T11:46:19.776Z,100119.28
2022-11-21T11:49:17.365Z,100151.09
2022-11-21T11:51:43.368Z,100152.25
2022-11-21T11:54:17.796Z,100154.84
2022-11-21T11:56:47.902Z,100153.84
2022-11-21T11:59:21.523Z,100158.50
2022-11-21T12:01:56.086Z,100159.50
2022-11-21T12:04:27.182Z,100122.44
2022-11-21T12:09:54.672Z,100135.22
2022-11-21T12:12:33.229Z,100141.38
2022-11-21T12:15:31.725Z,100086.28
2022-11-21T12:18:14.603Z,100108.31
2022-11-21T12:20:51.542Z,100109.59
2022-11-21T12:23:20.847Z,100085.59
2022-11-21T12:26:00.354Z,100064.13
2022-11-21T12:28:36.032Z,100059.94
2022-11-21T12:31:10.938Z,100053.59
2022-11-21T12:33:49.319Z,100048.28
2022-11-21T12:36:26.053Z,100042.09
2022-11-21T12:39:36.231Z,100052.22
2022-11-21T12:42:30.515Z,100066.53
2022-11-21T12:45:11.132Z,100068.22
2022-11-21T12:48:18.456Z,100055.66
2022-11-21T12:51:14.795Z,100046.06
2022-11-21T12:54:08.046Z,100046.94
2022-11-21T12:56:46.443Z,100040.53
2022-11-21T12:59:16.232Z,100011.06
2022-11-21T13:01:52.099Z,100012.84
2022-11-21T13:04:27.022Z,100015.25
2022-11-21T13:06:58.771Z,100021.13
2022-11-21T13:09:29.248Z,100010.19
2022-11-21T13:12:05.201Z,100000.41
2022-11-21T13:14:41.920Z,99970.97
2022-11-21T13:17:28.244Z,99934.66
2022-11-21T13:19:59.689Z,99953.59
2022-11-21T13:22:55.171Z,99972.53
2022-11-21T13:25:47.892Z,99966.53
2022-11-21T13:28:40.129Z,99961.00
2022-11-21T13:31:28.183Z,99952.75
2022-11-21T13:33:56.838Z,99952.59
2022-11-21T13:36:52.329Z,99962.34
2022-11-21T13:39:32.373Z,99939.53
2022-11-21T13:42:20.908Z,99911.69
2022-11-21T13:44:50.229Z,99903.44
2022-11-21T13:48:05.545Z,99901.31
2022-11-21T13:51:05.288Z,99896.69
2022-11-21T13:53:46.106Z,99886.19
2022-11-21T13:56:29.024Z,99884.06
2022-11-21T13:59:07.966Z,99894.41
2022-11-21T14:01:57.330Z,99882.69
2022-11-21T14:04:55.429Z,99883.59
2022-11-21T14:07:27.523Z,99890.56
2022-11-21T14:09:57.560Z,99884.28
2022-11-21T14:12:35.292Z,99887.53
2022-11-21T14:15:21.782Z,99889.81
2022-11-21T14:17:52.644Z,99888.16
2022-11-21T14:20:24.143Z,99880.47
2022-11-21T14:23:01.370Z,99873.16
2022-11-21T14:25:38.335Z,99863.34
2022-11-21T14:28:13.049Z,99861.00
2022-11-21T14:30:42.404Z,99862.97
2022-11-21T14:33:27.815Z,99855.44
2022-11-21T14:36:00.035Z,99828.94
2022-11-21T14:38:29.631Z,99850.50
2022-11-21T14:41:32.224Z,99860.31
2022-11-21T14:44:23.378Z,99869.13
2022-11-21T14:46:53.363Z,99846.16
2022-11-21T14:49:30.762Z,99857.19
2022-11-21T14:52:22.546Z,99831.72
2022-11-21T14:57:46.254Z,99858.47
2022-11-21T15:00:51.260Z,99822.72
2022-11-21T15:03:20.784Z,99841.91
2022-11-21T15:06:07.435Z,99847.91
2022-11-21T15:11:34.201Z,99841.22
2022-11-21T15:14:15.607Z,99832.56
2022-11-21T15:16:47.541Z,99822.50
2022-11-21T15:19:22.512Z,99814.13
2022-11-21T15:21:52.637Z,99801.22
2022-11-21T15:24:31.569Z,99796.34
2022-11-21T15:27:30.483Z,99794.28
2022-11-21T15:30:11.407Z,99791.47
2022-11-21T15:33:07.660Z,99795.19
2022-11-21T15:35:57.230Z,99793.22
2022-11-21T15:38:32.328Z,99751.66
2022-11-21T15:41:26.000Z,99775.59
2022-11-21T15:43:55.860Z,99787.91
2022-11-21T15:46:26.100Z,99788.75
2022-11-21T15:48:57.558Z,99639.66
2022-11-21T15:51:51.717Z,99774.59
2022-11-21T15:54:17.707Z,99774.06
2022-11-21T15:56:47.219Z,99774.91
2022-11-21T15:59:15.913Z,99782.44
2022-11-21T16:01:44.377Z,99769.81
2022-11-21T16:04:14.282Z,99768.97
2022-11-21T16:06:42.498Z,99770.94
2022-11-21T16:09:10.803Z,99770.25
2022-11-21T16:11:40.587Z,99765.94
2022-11-21T16:14:09.574Z,99765.94
2022-11-21T16:16:43.253Z,99777.41
2022-11-21T16:19:14.795Z,99766.63
2022-11-21T16:21:43.501Z,99763.94
2022-11-21T16:24:11.834Z,99755.97
2022-11-21T16:26:40.380Z,99759.47
2022-11-21T16:29:09.000Z,99754.00
2022-11-21T16:31:37.385Z,99758.03
2022-11-21T16:34:05.565Z,99759.00
2022-11-21T16:36:35.264Z,99762.50
2022-11-21T16:39:08.776Z,99755.66
2022-11-21T16:41:41.232Z,99755.13
2022-11-21T16:44:13.951Z,99758.47
2022-11-21T16:46:44.374Z,99759.84
2022-11-21T16:49:13.015Z,99755.22
2022-11-21T16:51:42.877Z,99756.06
2022-11-21T16:54:11.160Z,99754.88
2022-11-21T16:56:39.377Z,99744.91
2022-11-21T16:59:07.633Z,99742.09
2022-11-21T17:01:36.031Z,99751.91
2022-11-21T17:04:04.686Z,99748.13
2022-11-21T17:06:33.165Z,99744.84
2022-11-21T17:09:03.720Z,99744.38
2022-11-21T17:11:32.831Z,99731.16
2022-11-21T17:14:03.180Z,99733.81
2022-11-21T17:16:32.713Z,99739.38
2022-11-21T17:19:02.563Z,99749.03
2022-11-21T17:21:32.784Z,99734.19
2022-11-21T17:24:02.512Z,99745.81
2022-11-21T17:26:31.034Z,99737.16
2022-11-21T17:29:01.123Z,99744.00
2022-11-21T17:31:29.342Z,99735.88
2022-11-21T17:33:58.071Z,99747.88
2022-11-21T17:36:28.155Z,99746.38
2022-11-21T17:38:57.803Z,99740.88
2022-11-21T17:41:27.737Z,99730.53
2022-11-21T17:43:57.513Z,99719.78
2022-11-21T17:46:26.496Z,99747.13
2022-11-21T17:48:58.322Z,99751.16
2022-11-21T17:51:29.433Z,99722.88
2022-11-21T17:53:59.541Z,99761.13
2022-11-21T17:56:31.259Z,99744.72
2022-11-21T17:58:59.789Z,99774.44
2022-11-21T18:01:28.310Z,99779.44
2022-11-21T18:03:58.734Z,99789.13
2022-11-21T18:06:28.537Z,99795.56
2022-11-21T18:08:58.601Z,99793.22
2022-11-21T18:11:37.668Z,99774.28
2022-11-21T18:14:08.800Z,99790.72
2022-11-21T18:16:38.016Z,99781.34
2022-11-21T18:19:06.677Z,99760.59
2022-11-21T18:21:36.627Z,99766.25
2022-11-21T18:24:05.163Z,99768.81
2022-11-21T18:26:36.890Z,99760.97
2022-11-21T18:29:35.164Z,99751.47
2022-11-21T18:31:55.143Z,99770.03
2022-11-21T18:34:23.317Z,99725.25
2022-11-21T18:36:51.780Z,99759.59
2022-11-21T18:39:21.102Z,99763.63
2022-11-21T18:41:51.539Z,99746.38
2022-11-21T18:44:22.173Z,99709.59
2022-11-21T18:46:51.184Z,99734.50
2022-11-21T18:49:19.518Z,99724.69
2022-11-21T18:51:48.461Z,99722.69
2022-11-21T18:54:17.476Z,99704.22
2022-11-21T18:56:47.013Z,99705.75
2022-11-21T18:59:17.074Z,99684.06
2022-11-21T19:01:45.493Z,99696.16
2022-11-21T19:04:13.831Z,99690.00
2022-11-21T19:06:42.076Z,99685.66
2022-11-21T19:09:11.720Z,99687.00
2022-11-21T19:11:40.828Z,99665.25
2022-11-21T19:14:09.263Z,99685.53
2022-11-21T19:16:38.913Z,99685.84
2022-11-21T19:21:56.554Z,99705.09
2022-11-21T19:24:24.880Z,99694.16
2022-11-21T19:26:53.204Z,99695.47
2022-11-21T19:29:21.343Z,99712.53
2022-11-21T19:31:51.135Z,99713.94
2022-11-21T19:34:19.412Z,99701.41
2022-11-21T19:36:47.649Z,99699.34
2022-11-21T19:39:17.575Z,99696.16
2022-11-21T19:41:46.025Z,99695.19
2022-11-21T19:44:14.344Z,99685.38
2022-11-21T19:46:42.636Z,99691.53
2022-11-21T19:49:13.670Z,99672.75
2022-11-21T19:51:43.145Z,99695.84
2022-11-21T19:54:14.127Z,99671.25
2022-11-21T19:56:42.410Z,99690.50
2022-11-21T19:59:12.834Z,99681.38
2022-11-21T20:01:41.498Z,99686.84
2022-11-21T20:04:09.906Z,99689.81
2022-11-21T20:06:41.586Z,99695.28
2022-11-21T20:09:13.061Z,99693.09
2022-11-21T20:11:42.639Z,99682.28
2022-11-21T20:14:16.305Z,99677.66
2022-11-21T20:16:49.915Z,99684.34
2022-11-21T20:19:19.453Z,99675.13
2022-11-21T20:21:49.151Z,99674.38
2022-11-21T20:24:18.015Z,99677.88
2022-11-21T20:26:46.541Z,99643.97
2022-11-21T20:29:15.897Z,99667.88
2022-11-21T20:31:45.188Z,99654.91
2022-11-21T20:34:14.458Z,99662.25
2022-11-21T20:36:43.477Z,99632.19
2022-11-21T20:39:16.087Z,99650.28
2022-11-21T20:41:45.405Z,99647.78
2022-11-21T20:47:04.629Z,99630.44
2022-11-21T20:49:33.094Z,99623.66
2022-11-21T20:54:51.334Z,99624.78
2022-11-21T20:57:19.573Z,99618.63
2022-11-21T20:59:47.874Z,99626.78
2022-11-21T21:02:16.066Z,99634.91
2022-11-21T21:04:44.407Z,99623.22
2022-11-21T21:07:12.714Z,99628.22
2022-11-21T21:09:41.137Z,99617.56
2022-11-21T21:12:10.874Z,99615.91
2022-11-21T21:14:39.104Z,99606.63
2022-11-21T21:17:07.394Z,99598.94
2022-11-21T21:19:35.745Z,99588.03
2022-11-21T21:22:05.139Z,99590.59
2022-11-21T21:24:33.550Z,99594.94
2022-11-21T21:27:01.824Z,99579.78
2022-11-21T21:29:31.907Z,99594.94
2022-11-21T21:32:00.544Z,99602.22
2022-11-21T21:34:30.247Z,99605.56
2022-11-21T21:36:58.721Z,99615.75
2022-11-21T21:39:27.531Z,99629.22
2022-11-21T21:41:55.819Z,99636.06
2022-11-21T21:44:28.321Z,99646.53
2022-11-21T21:47:01.349Z,99654.22
2022-11-21T21:49:31.803Z,99656.56
2022-11-21T21:52:00.115Z,99653.22
2022-11-21T21:54:28.699Z,99658.72
2022-11-21T21:56:57.259Z,99651.88
2022-11-21T21:59:25.841Z,99638.19
2022-11-21T22:01:58.208Z,99634.69
2022-11-21T22:04:28.512Z,99634.53
2022-11-21T22:06:57.020Z,99652.19
2022-11-21T22:09:25.452Z,99638.56
2022-11-21T22:11:54.253Z,99635.22
2022-11-21T22:14:22.757Z,99606.66
2022-11-21T22:16:52.046Z,99638.09
2022-11-21T22:19:21.396Z,99628.28
2022-11-21T22:21:51.040Z,99624.63
2022-11-21T22:24:27.621Z,99618.47
2022-11-21T22:26:56.605Z,99616.13
2022-11-21T22:29:24.845Z,99615.97
2022-11-21T22:31:53.347Z,99571.72
2022-11-21T22:34:22.935Z,99609.97
2022-11-21T22:36:52.664Z,99604.94
2022-11-21T22:39:21.169Z,99599.25
2022-11-21T22:41:49.569Z,99599.41
2022-11-21T22:44:17.802Z,99583.91
2022-11-21T22:46:46.307Z,99594.41
2022-11-21T22:49:14.500Z,99600.41
2022-11-21T22:51:42.760Z,99603.75
2022-11-21T22:54:13.016Z,99612.72
2022-11-21T22:56:41.395Z,99611.88
2022-11-21T22:59:09.612Z,99620.56
2022-11-21T23:01:38.015Z,99516.00
2022-11-21T23:04:06.312Z,99624.56
2022-11-21T23:06:34.624Z,99614.91
2022-11-21T23:09:02.932Z,99631.25
2022-11-21T23:11:39.400Z,99612.25
2022-11-21T23:14:09.428Z,99617.13
2022-11-21T23:16:37.704Z,99570.06
2022-11-21T23:19:06.647Z,99607.47
2022-11-21T23:21:34.933Z,99610.81
2022-11-21T23:24:03.190Z,99609.66
2022-11-21T23:26:32.932Z,99609.16
2022-11-21T23:29:07.947Z,99611.00
2022-11-21T23:31:37.070Z,99598.34
2022-11-21T23:34:05.507Z,99598.06
2022-11-21T23:36:33.844Z,99587.56
2022-11-21T23:39:02.016Z,99566.66
2022-11-21T23:41:30.283Z,99589.53
2022-11-21T23:44:00.402Z,99601.03
2022-11-21T23:46:29.079Z,99605.00
2022-11-21T23:48:57.407Z,99603.50
2022-11-21T23:51:25.741Z,99595.81
2022-11-21T23:53:54.179Z,99588.16
2022-11-21T23:56:22.511Z,99594.31
2022-11-21T23:58:50.752Z,99590.13
